sensor_id;sensor_type;location;lat;lon;timestamp;P1;durP1;ratioP1;P2;durP2;ratioP2
10005;SDS011;5042;42.626;23.382;2023-01-25T00:02:05;6.23;;;4.60;;
10005;SDS011;5042;42.626;23.382;2023-01-25T00:04:32;5.80;;;4.30;;
10005;SDS011;5042;42.626;23.382;2023-01-25T00:06:59;6.70;;;4.77;;
10005;SDS011;5042;42.626;23.382;2023-01-25T00:09:25;6.87;;;4.57;;
10005;SDS011;5042;42.626;23.382;2023-01-25T00:11:52;6.77;;;4.90;;
10005;SDS011;5042;42.626;23.382;2023-01-25T00:14:21;6.93;;;4.80;;
10005;SDS011;5042;42.626;23.382;2023-01-25T00:16:48;6.90;;;4.63;;
10005;SDS011;5042;42.626;23.382;2023-01-25T00:19:15;8.30;;;4.67;;
10005;SDS011;5042;42.626;23.382;2023-01-25T00:21:42;7.57;;;4.77;;
10005;SDS011;5042;42.626;23.382;2023-01-25T00:24:09;7.50;;;4.83;;
10005;SDS011;5042;42.626;23.382;2023-01-25T00:26:38;5.33;;;4.23;;
10005;SDS011;5042;42.626;23.382;2023-01-25T00:29:08;6.97;;;4.40;;
10005;SDS011;5042;42.626;23.382;2023-01-25T00:31:45;5.13;;;3.60;;
10005;SDS011;5042;42.626;23.382;2023-01-25T00:37:17;7.83;;;4.33;;
10005;SDS011;5042;42.626;23.382;2023-01-25T00:39:48;6.30;;;4.47;;
10005;SDS011;5042;42.626;23.382;2023-01-25T00:42:16;6.57;;;4.03;;
10005;SDS011;5042;42.626;23.382;2023-01-25T00:44:43;8.30;;;5.00;;
10005;SDS011;5042;42.626;23.382;2023-01-25T00:47:12;7.43;;;4.77;;
10005;SDS011;5042;42.626;23.382;2023-01-25T00:49:39;7.73;;;4.67;;
10005;SDS011;5042;42.626;23.382;2023-01-25T00:52:08;8.63;;;4.73;;
10005;SDS011;5042;42.626;23.382;2023-01-25T00:54:35;6.97;;;5.03;;
10005;SDS011;5042;42.626;23.382;2023-01-25T00:57:01;8.10;;;5.00;;
10005;SDS011;5042;42.626;23.382;2023-01-25T00:59:29;6.57;;;4.27;;
10005;SDS011;5042;42.626;23.382;2023-01-25T01:01:55;5.87;;;4.00;;
10005;SDS011;5042;42.626;23.382;2023-01-25T01:04:24;5.73;;;3.63;;
10005;SDS011;5042;42.626;23.382;2023-01-25T01:06:51;6.37;;;3.90;;
10005;SDS011;5042;42.626;23.382;2023-01-25T01:09:19;6.23;;;3.93;;
10005;SDS011;5042;42.626;23.382;2023-01-25T01:11:46;3.93;;;3.10;;
10005;SDS011;5042;42.626;23.382;2023-01-25T01:14:13;4.50;;;3.53;;
10005;SDS011;5042;42.626;23.382;2023-01-25T01:16:40;4.47;;;3.53;;
10005;SDS011;5042;42.626;23.382;2023-01-25T01:19:07;5.60;;;4.23;;
10005;SDS011;5042;42.626;23.382;2023-01-25T01:21:35;4.90;;;3.53;;
10005;SDS011;5042;42.626;23.382;2023-01-25T01:24:02;5.10;;;3.37;;
10005;SDS011;5042;42.626;23.382;2023-01-25T01:26:29;6.07;;;3.90;;
10005;SDS011;5042;42.626;23.382;2023-01-25T01:28:56;6.27;;;3.73;;
10005;SDS011;5042;42.626;23.382;2023-01-25T01:31:23;5.90;;;3.43;;
10005;SDS011;5042;42.626;23.382;2023-01-25T01:33:50;5.23;;;3.40;;
10005;SDS011;5042;42.626;23.382;2023-01-25T01:36:19;7.07;;;3.20;;
10005;SDS011;5042;42.626;23.382;2023-01-25T01:38:49;3.67;;;3.00;;
10005;SDS011;5042;42.626;23.382;2023-01-25T01:41:16;5.63;;;3.30;;
10005;SDS011;5042;42.626;23.382;2023-01-25T01:43:43;4.47;;;3.67;;
10005;SDS011;5042;42.626;23.382;2023-01-25T01:46:11;5.50;;;3.63;;
10005;SDS011;5042;42.626;23.382;2023-01-25T01:48:42;3.37;;;2.83;;
10005;SDS011;5042;42.626;23.382;2023-01-25T01:51:17;5.27;;;3.80;;
10005;SDS011;5042;42.626;23.382;2023-01-25T01:53:49;4.50;;;3.17;;
10005;SDS011;5042;42.626;23.382;2023-01-25T01:56:21;6.23;;;3.60;;
10005;SDS011;5042;42.626;23.382;2023-01-25T01:58:53;5.33;;;3.07;;
10005;SDS011;5042;42.626;23.382;2023-01-25T02:01:23;5.87;;;3.67;;
10005;SDS011;5042;42.626;23.382;2023-01-25T02:03:49;4.37;;;3.40;;
10005;SDS011;5042;42.626;23.382;2023-01-25T02:06:19;3.87;;;2.80;;
10005;SDS011;5042;42.626;23.382;2023-01-25T02:08:53;4.00;;;3.10;;
10005;SDS011;5042;42.626;23.382;2023-01-25T02:11:21;4.90;;;2.90;;
10005;SDS011;5042;42.626;23.382;2023-01-25T02:13:50;3.40;;;2.67;;
10005;SDS011;5042;42.626;23.382;2023-01-25T02:16:18;4.37;;;2.67;;
10005;SDS011;5042;42.626;23.382;2023-01-25T02:18:50;3.33;;;2.37;;
10005;SDS011;5042;42.626;23.382;2023-01-25T02:21:18;4.30;;;3.03;;
10005;SDS011;5042;42.626;23.382;2023-01-25T02:23:47;4.13;;;2.97;;
10005;SDS011;5042;42.626;23.382;2023-01-25T02:26:20;3.33;;;2.60;;
10005;SDS011;5042;42.626;23.382;2023-01-25T02:28:49;4.53;;;2.57;;
10005;SDS011;5042;42.626;23.382;2023-01-25T02:31:21;3.23;;;2.50;;
10005;SDS011;5042;42.626;23.382;2023-01-25T02:33:48;3.23;;;2.77;;
10005;SDS011;5042;42.626;23.382;2023-01-25T02:36:16;3.47;;;2.50;;
10005;SDS011;5042;42.626;23.382;2023-01-25T02:38:47;5.17;;;3.00;;
10005;SDS011;5042;42.626;23.382;2023-01-25T02:41:20;4.23;;;2.70;;
10005;SDS011;5042;42.626;23.382;2023-01-25T02:43:50;2.40;;;2.17;;
10005;SDS011;5042;42.626;23.382;2023-01-25T02:46:19;3.60;;;2.63;;
10005;SDS011;5042;42.626;23.382;2023-01-25T02:48:50;3.47;;;2.50;;
10005;SDS011;5042;42.626;23.382;2023-01-25T02:51:17;3.00;;;2.30;;
10005;SDS011;5042;42.626;23.382;2023-01-25T02:53:44;4.43;;;2.57;;
10005;SDS011;5042;42.626;23.382;2023-01-25T02:56:11;3.30;;;2.70;;
10005;SDS011;5042;42.626;23.382;2023-01-25T02:58:40;3.60;;;2.93;;
10005;SDS011;5042;42.626;23.382;2023-01-25T03:01:07;3.13;;;2.37;;
10005;SDS011;5042;42.626;23.382;2023-01-25T03:03:34;4.07;;;2.93;;
10005;SDS011;5042;42.626;23.382;2023-01-25T03:06:01;3.70;;;2.60;;
10005;SDS011;5042;42.626;23.382;2023-01-25T03:08:28;4.37;;;3.07;;
10005;SDS011;5042;42.626;23.382;2023-01-25T03:10:55;4.27;;;2.90;;
10005;SDS011;5042;42.626;23.382;2023-01-25T03:13:23;3.73;;;2.63;;
10005;SDS011;5042;42.626;23.382;2023-01-25T03:15:51;2.90;;;2.57;;
10005;SDS011;5042;42.626;23.382;2023-01-25T03:18:23;4.03;;;2.93;;
10005;SDS011;5042;42.626;23.382;2023-01-25T03:20:50;4.27;;;3.00;;
10005;SDS011;5042;42.626;23.382;2023-01-25T03:23:17;4.80;;;3.10;;
10005;SDS011;5042;42.626;23.382;2023-01-25T03:25:43;3.33;;;2.67;;
10005;SDS011;5042;42.626;23.382;2023-01-25T03:28:10;4.53;;;3.27;;
10005;SDS011;5042;42.626;23.382;2023-01-25T03:30:37;4.70;;;2.83;;
10005;SDS011;5042;42.626;23.382;2023-01-25T03:33:05;3.47;;;2.80;;
10005;SDS011;5042;42.626;23.382;2023-01-25T03:35:32;4.30;;;2.73;;
10005;SDS011;5042;42.626;23.382;2023-01-25T03:37:59;3.40;;;2.37;;
10005;SDS011;5042;42.626;23.382;2023-01-25T03:40:26;4.03;;;2.87;;
10005;SDS011;5042;42.626;23.382;2023-01-25T03:42:52;2.90;;;2.37;;
10005;SDS011;5042;42.626;23.382;2023-01-25T03:45:19;4.43;;;2.90;;
10005;SDS011;5042;42.626;23.382;2023-01-25T03:47:46;3.70;;;2.70;;
10005;SDS011;5042;42.626;23.382;2023-01-25T03:50:14;2.93;;;2.43;;
10005;SDS011;5042;42.626;23.382;2023-01-25T03:55:46;3.57;;;2.43;;
10005;SDS011;5042;42.626;23.382;2023-01-25T03:58:12;3.43;;;2.63;;
10005;SDS011;5042;42.626;23.382;2023-01-25T04:00:39;4.13;;;3.00;;
10005;SDS011;5042;42.626;23.382;2023-01-25T04:03:06;4.27;;;2.60;;
10005;SDS011;5042;42.626;23.382;2023-01-25T04:05:34;3.73;;;2.50;;
10005;SDS011;5042;42.626;23.382;2023-01-25T04:08:01;3.47;;;2.57;;
10005;SDS011;5042;42.626;23.382;2023-01-25T04:10:27;3.10;;;2.33;;
10005;SDS011;5042;42.626;23.382;2023-01-25T04:12:54;2.40;;;2.20;;
10005;SDS011;5042;42.626;23.382;2023-01-25T04:15:21;2.90;;;1.97;;
10005;SDS011;5042;42.626;23.382;2023-01-25T04:17:48;2.67;;;2.47;;
10005;SDS011;5042;42.626;23.382;2023-01-25T04:20:14;1.27;;;1.17;;
10005;SDS011;5042;42.626;23.382;2023-01-25T04:22:43;3.13;;;2.43;;
10005;SDS011;5042;42.626;23.382;2023-01-25T04:25:09;3.27;;;2.57;;
10005;SDS011;5042;42.626;23.382;2023-01-25T04:27:36;3.07;;;2.70;;
10005;SDS011;5042;42.626;23.382;2023-01-25T04:30:03;3.83;;;2.27;;
10005;SDS011;5042;42.626;23.382;2023-01-25T04:32:33;3.23;;;2.20;;
10005;SDS011;5042;42.626;23.382;2023-01-25T04:35:00;2.00;;;1.43;;
10005;SDS011;5042;42.626;23.382;2023-01-25T04:37:27;4.77;;;2.50;;
10005;SDS011;5042;42.626;23.382;2023-01-25T04:39:55;3.30;;;2.70;;
10005;SDS011;5042;42.626;23.382;2023-01-25T04:42:22;1.80;;;1.37;;
10005;SDS011;5042;42.626;23.382;2023-01-25T04:44:48;2.63;;;2.20;;
10005;SDS011;5042;42.626;23.382;2023-01-25T04:47:15;2.87;;;2.27;;
10005;SDS011;5042;42.626;23.382;2023-01-25T04:49:42;2.60;;;2.30;;
10005;SDS011;5042;42.626;23.382;2023-01-25T04:52:26;3.77;;;2.37;;
10005;SDS011;5042;42.626;23.382;2023-01-25T04:54:54;4.53;;;2.50;;
10005;SDS011;5042;42.626;23.382;2023-01-25T04:57:21;3.27;;;2.60;;
10005;SDS011;5042;42.626;23.382;2023-01-25T04:59:48;4.33;;;2.67;;
10005;SDS011;5042;42.626;23.382;2023-01-25T05:02:14;2.40;;;2.20;;
10005;SDS011;5042;42.626;23.382;2023-01-25T05:04:41;3.60;;;3.17;;
10005;SDS011;5042;42.626;23.382;2023-01-25T05:07:08;5.73;;;3.57;;
10005;SDS011;5042;42.626;23.382;2023-01-25T05:09:34;3.40;;;2.70;;
10005;SDS011;5042;42.626;23.382;2023-01-25T05:12:03;4.47;;;2.50;;
10005;SDS011;5042;42.626;23.382;2023-01-25T05:14:35;2.27;;;2.07;;
10005;SDS011;5042;42.626;23.382;2023-01-25T05:17:02;1.80;;;1.67;;
10005;SDS011;5042;42.626;23.382;2023-01-25T05:19:29;3.20;;;2.70;;
10005;SDS011;5042;42.626;23.382;2023-01-25T05:21:56;3.60;;;2.57;;
10005;SDS011;5042;42.626;23.382;2023-01-25T05:24:26;3.30;;;2.17;;
10005;SDS011;5042;42.626;23.382;2023-01-25T05:26:53;4.00;;;2.80;;
10005;SDS011;5042;42.626;23.382;2023-01-25T05:29:27;3.63;;;2.70;;
10005;SDS011;5042;42.626;23.382;2023-01-25T05:31:54;4.57;;;3.03;;
10005;SDS011;5042;42.626;23.382;2023-01-25T05:34:21;5.03;;;3.27;;
10005;SDS011;5042;42.626;23.382;2023-01-25T05:36:48;3.37;;;3.03;;
10005;SDS011;5042;42.626;23.382;2023-01-25T05:39:15;5.10;;;3.03;;
10005;SDS011;5042;42.626;23.382;2023-01-25T05:41:42;5.07;;;3.90;;
10005;SDS011;5042;42.626;23.382;2023-01-25T05:44:09;4.30;;;3.23;;
10005;SDS011;5042;42.626;23.382;2023-01-25T05:46:37;3.17;;;2.73;;
10005;SDS011;5042;42.626;23.382;2023-01-25T05:49:04;3.77;;;2.97;;
10005;SDS011;5042;42.626;23.382;2023-01-25T05:51:31;4.20;;;3.10;;
10005;SDS011;5042;42.626;23.382;2023-01-25T05:53:57;4.97;;;3.60;;
10005;SDS011;5042;42.626;23.382;2023-01-25T05:56:24;3.10;;;2.80;;
10005;SDS011;5042;42.626;23.382;2023-01-25T05:58:51;2.43;;;1.70;;
10005;SDS011;5042;42.626;23.382;2023-01-25T06:01:19;5.57;;;2.40;;
10005;SDS011;5042;42.626;23.382;2023-01-25T06:03:48;3.53;;;2.30;;
10005;SDS011;5042;42.626;23.382;2023-01-25T06:06:15;2.87;;;2.20;;
10005;SDS011;5042;42.626;23.382;2023-01-25T06:08:42;2.67;;;2.27;;
10005;SDS011;5042;42.626;23.382;2023-01-25T06:11:11;4.50;;;2.60;;
10005;SDS011;5042;42.626;23.382;2023-01-25T06:13:39;1.30;;;1.20;;
10005;SDS011;5042;42.626;23.382;2023-01-25T06:16:07;3.43;;;2.37;;
10005;SDS011;5042;42.626;23.382;2023-01-25T06:18:34;2.70;;;2.20;;
10005;SDS011;5042;42.626;23.382;2023-01-25T06:21:03;5.27;;;2.60;;
10005;SDS011;5042;42.626;23.382;2023-01-25T06:23:31;5.97;;;2.60;;
10005;SDS011;5042;42.626;23.382;2023-01-25T06:25:57;2.93;;;2.63;;
10005;SDS011;5042;42.626;23.382;2023-01-25T06:28:24;4.50;;;3.30;;
10005;SDS011;5042;42.626;23.382;2023-01-25T06:30:51;3.77;;;2.93;;
10005;SDS011;5042;42.626;23.382;2023-01-25T06:33:18;3.77;;;2.90;;
10005;SDS011;5042;42.626;23.382;2023-01-25T06:35:45;4.20;;;3.10;;
10005;SDS011;5042;42.626;23.382;2023-01-25T06:38:13;4.23;;;3.13;;
10005;SDS011;5042;42.626;23.382;2023-01-25T06:40:39;4.03;;;3.17;;
10005;SDS011;5042;42.626;23.382;2023-01-25T06:43:06;4.70;;;3.37;;
10005;SDS011;5042;42.626;23.382;2023-01-25T06:45:33;5.17;;;3.53;;
10005;SDS011;5042;42.626;23.382;2023-01-25T06:48:00;5.33;;;3.57;;
10005;SDS011;5042;42.626;23.382;2023-01-25T06:50:27;3.57;;;3.03;;
10005;SDS011;5042;42.626;23.382;2023-01-25T06:52:54;3.30;;;2.63;;
10005;SDS011;5042;42.626;23.382;2023-01-25T06:55:23;3.13;;;2.63;;
10005;SDS011;5042;42.626;23.382;2023-01-25T06:57:49;3.80;;;2.43;;
10005;SDS011;5042;42.626;23.382;2023-01-25T07:00:16;4.63;;;2.90;;
10005;SDS011;5042;42.626;23.382;2023-01-25T07:02:44;5.00;;;3.30;;
10005;SDS011;5042;42.626;23.382;2023-01-25T07:05:10;5.53;;;3.50;;
10005;SDS011;5042;42.626;23.382;2023-01-25T07:07:37;5.80;;;3.60;;
10005;SDS011;5042;42.626;23.382;2023-01-25T07:10:04;4.13;;;2.80;;
10005;SDS011;5042;42.626;23.382;2023-01-25T07:12:33;4.40;;;3.63;;
10005;SDS011;5042;42.626;23.382;2023-01-25T07:15:00;5.30;;;3.70;;
10005;SDS011;5042;42.626;23.382;2023-01-25T07:17:26;4.77;;;3.80;;
10005;SDS011;5042;42.626;23.382;2023-01-25T07:19:53;5.03;;;3.90;;
10005;SDS011;5042;42.626;23.382;2023-01-25T07:22:20;6.27;;;3.83;;
10005;SDS011;5042;42.626;23.382;2023-01-25T07:24:48;6.37;;;3.90;;
10005;SDS011;5042;42.626;23.382;2023-01-25T07:27:16;5.87;;;3.47;;
10005;SDS011;5042;42.626;23.382;2023-01-25T07:29:45;7.00;;;4.13;;
10005;SDS011;5042;42.626;23.382;2023-01-25T07:32:11;5.63;;;3.70;;
10005;SDS011;5042;42.626;23.382;2023-01-25T07:34:39;4.33;;;3.50;;
10005;SDS011;5042;42.626;23.382;2023-01-25T07:37:05;5.47;;;4.17;;
10005;SDS011;5042;42.626;23.382;2023-01-25T07:39:33;5.17;;;4.10;;
10005;SDS011;5042;42.626;23.382;2023-01-25T07:42:00;4.30;;;3.90;;
10005;SDS011;5042;42.626;23.382;2023-01-25T07:44:27;6.40;;;4.87;;
10005;SDS011;5042;42.626;23.382;2023-01-25T07:46:55;6.70;;;4.53;;
10005;SDS011;5042;42.626;23.382;2023-01-25T07:49:22;5.43;;;4.47;;
10005;SDS011;5042;42.626;23.382;2023-01-25T07:51:48;5.37;;;4.00;;
10005;SDS011;5042;42.626;23.382;2023-01-25T07:54:15;6.93;;;4.77;;
10005;SDS011;5042;42.626;23.382;2023-01-25T07:56:42;8.17;;;4.60;;
10005;SDS011;5042;42.626;23.382;2023-01-25T07:59:08;6.73;;;4.60;;
10005;SDS011;5042;42.626;23.382;2023-01-25T08:01:36;7.53;;;5.03;;
10005;SDS011;5042;42.626;23.382;2023-01-25T08:04:06;6.27;;;4.93;;
10005;SDS011;5042;42.626;23.382;2023-01-25T08:06:33;5.67;;;5.07;;
10005;SDS011;5042;42.626;23.382;2023-01-25T08:09:03;9.17;;;5.30;;
10005;SDS011;5042;42.626;23.382;2023-01-25T08:11:32;10.03;;;5.67;;
10005;SDS011;5042;42.626;23.382;2023-01-25T08:13:58;8.20;;;5.67;;
10005;SDS011;5042;42.626;23.382;2023-01-25T08:16:27;7.20;;;5.47;;
10005;SDS011;5042;42.626;23.382;2023-01-25T08:18:55;7.83;;;5.60;;
10005;SDS011;5042;42.626;23.382;2023-01-25T08:21:25;8.10;;;5.73;;
10005;SDS011;5042;42.626;23.382;2023-01-25T08:23:55;7.97;;;5.00;;
10005;SDS011;5042;42.626;23.382;2023-01-25T08:26:23;6.07;;;4.43;;
10005;SDS011;5042;42.626;23.382;2023-01-25T08:28:50;9.93;;;5.57;;
10005;SDS011;5042;42.626;23.382;2023-01-25T08:31:19;7.47;;;5.63;;
10005;SDS011;5042;42.626;23.382;2023-01-25T08:33:47;7.93;;;6.03;;
10005;SDS011;5042;42.626;23.382;2023-01-25T08:36:14;8.33;;;5.67;;
10005;SDS011;5042;42.626;23.382;2023-01-25T08:38:44;9.27;;;6.17;;
10005;SDS011;5042;42.626;23.382;2023-01-25T08:41:12;9.30;;;6.30;;
10005;SDS011;5042;42.626;23.382;2023-01-25T08:43:41;8.10;;;5.90;;
10005;SDS011;5042;42.626;23.382;2023-01-25T08:46:07;9.67;;;6.77;;
10005;SDS011;5042;42.626;23.382;2023-01-25T08:48:35;9.40;;;6.40;;
10005;SDS011;5042;42.626;23.382;2023-01-25T08:51:02;10.33;;;7.07;;
10005;SDS011;5042;42.626;23.382;2023-01-25T08:53:29;10.50;;;6.77;;
10005;SDS011;5042;42.626;23.382;2023-01-25T08:56:02;8.43;;;6.70;;
10005;SDS011;5042;42.626;23.382;2023-01-25T08:58:29;10.17;;;6.80;;
10005;SDS011;5042;42.626;23.382;2023-01-25T09:00:59;9.17;;;8.10;;
10005;SDS011;5042;42.626;23.382;2023-01-25T09:03:28;6.17;;;4.87;;
10005;SDS011;5042;42.626;23.382;2023-01-25T09:05:55;8.37;;;6.07;;
10005;SDS011;5042;42.626;23.382;2023-01-25T09:08:22;8.13;;;6.23;;
10005;SDS011;5042;42.626;23.382;2023-01-25T09:10:49;6.00;;;4.63;;
10005;SDS011;5042;42.626;23.382;2023-01-25T09:13:17;9.10;;;6.77;;
10005;SDS011;5042;42.626;23.382;2023-01-25T09:15:44;10.30;;;6.80;;
10005;SDS011;5042;42.626;23.382;2023-01-25T09:18:11;10.10;;;6.30;;
10005;SDS011;5042;42.626;23.382;2023-01-25T09:20:38;8.97;;;6.97;;
10005;SDS011;5042;42.626;23.382;2023-01-25T09:23:05;9.83;;;6.90;;
10005;SDS011;5042;42.626;23.382;2023-01-25T09:25:32;8.50;;;6.57;;
10005;SDS011;5042;42.626;23.382;2023-01-25T09:27:59;10.23;;;7.17;;
10005;SDS011;5042;42.626;23.382;2023-01-25T09:30:40;10.40;;;7.80;;
10005;SDS011;5042;42.626;23.382;2023-01-25T09:33:06;9.13;;;6.57;;
10005;SDS011;5042;42.626;23.382;2023-01-25T09:35:33;8.53;;;6.10;;
10005;SDS011;5042;42.626;23.382;2023-01-25T09:38:00;8.80;;;6.80;;
10005;SDS011;5042;42.626;23.382;2023-01-25T09:40:28;9.60;;;6.90;;
10005;SDS011;5042;42.626;23.382;2023-01-25T09:43:03;8.87;;;6.73;;
10005;SDS011;5042;42.626;23.382;2023-01-25T09:45:38;8.33;;;6.43;;
10005;SDS011;5042;42.626;23.382;2023-01-25T09:48:09;10.37;;;6.73;;
10005;SDS011;5042;42.626;23.382;2023-01-25T09:50:48;7.50;;;6.00;;
10005;SDS011;5042;42.626;23.382;2023-01-25T09:53:34;8.87;;;6.73;;
10005;SDS011;5042;42.626;23.382;2023-01-25T09:56:07;7.57;;;6.17;;
10005;SDS011;5042;42.626;23.382;2023-01-25T09:58:38;6.73;;;5.57;;
10005;SDS011;5042;42.626;23.382;2023-01-25T10:01:26;9.20;;;7.30;;
10005;SDS011;5042;42.626;23.382;2023-01-25T10:04:00;7.90;;;6.77;;
10005;SDS011;5042;42.626;23.382;2023-01-25T10:06:35;9.47;;;7.33;;
10005;SDS011;5042;42.626;23.382;2023-01-25T10:09:06;5.20;;;4.60;;
10005;SDS011;5042;42.626;23.382;2023-01-25T10:11:41;6.00;;;5.40;;
10005;SDS011;5042;42.626;23.382;2023-01-25T10:14:10;7.53;;;5.47;;
10005;SDS011;5042;42.626;23.382;2023-01-25T10:16:47;7.63;;;5.97;;
10005;SDS011;5042;42.626;23.382;2023-01-25T10:19:22;6.70;;;5.30;;
10005;SDS011;5042;42.626;23.382;2023-01-25T10:21:56;6.37;;;5.60;;
10005;SDS011;5042;42.626;23.382;2023-01-25T10:24:35;7.20;;;5.53;;
10005;SDS011;5042;42.626;23.382;2023-01-25T10:27:23;6.40;;;5.47;;
10005;SDS011;5042;42.626;23.382;2023-01-25T10:29:55;7.23;;;5.87;;
10005;SDS011;5042;42.626;23.382;2023-01-25T10:32:27;6.93;;;5.00;;
10005;SDS011;5042;42.626;23.382;2023-01-25T10:34:56;4.80;;;4.30;;
10005;SDS011;5042;42.626;23.382;2023-01-25T10:37:31;5.60;;;4.77;;
10005;SDS011;5042;42.626;23.382;2023-01-25T10:40:02;4.73;;;4.20;;
10005;SDS011;5042;42.626;23.382;2023-01-25T10:42:40;5.83;;;4.90;;
10005;SDS011;5042;42.626;23.382;2023-01-25T10:45:10;5.50;;;4.57;;
10005;SDS011;5042;42.626;23.382;2023-01-25T10:47:40;7.23;;;5.27;;
10005;SDS011;5042;42.626;23.382;2023-01-25T10:50:09;6.97;;;5.27;;
10005;SDS011;5042;42.626;23.382;2023-01-25T10:53:21;6.30;;;5.33;;
10005;SDS011;5042;42.626;23.382;2023-01-25T10:56:00;4.23;;;3.83;;
10005;SDS011;5042;42.626;23.382;2023-01-25T10:58:41;5.43;;;4.93;;
10005;SDS011;5042;42.626;23.382;2023-01-25T11:01:11;6.53;;;5.10;;
10005;SDS011;5042;42.626;23.382;2023-01-25T11:03:51;4.63;;;4.13;;
10005;SDS011;5042;42.626;23.382;2023-01-25T11:06:27;4.73;;;4.30;;
10005;SDS011;5042;42.626;23.382;2023-01-25T11:08:55;4.90;;;4.40;;
10005;SDS011;5042;42.626;23.382;2023-01-25T11:11:23;4.03;;;3.63;;
10005;SDS011;5042;42.626;23.382;2023-01-25T11:13:52;5.23;;;4.73;;
10005;SDS011;5042;42.626;23.382;2023-01-25T11:19:24;4.20;;;3.80;;
10005;SDS011;5042;42.626;23.382;2023-01-25T11:21:54;4.50;;;3.30;;
10005;SDS011;5042;42.626;23.382;2023-01-25T11:24:24;5.27;;;3.60;;
10005;SDS011;5042;42.626;23.382;2023-01-25T11:29:39;4.10;;;3.63;;
10005;SDS011;5042;42.626;23.382;2023-01-25T11:32:12;2.57;;;2.37;;
10005;SDS011;5042;42.626;23.382;2023-01-25T11:34:45;4.53;;;4.13;;
10005;SDS011;5042;42.626;23.382;2023-01-25T11:37:17;4.00;;;3.60;;
10005;SDS011;5042;42.626;23.382;2023-01-25T11:39:57;4.07;;;3.60;;
10005;SDS011;5042;42.626;23.382;2023-01-25T11:42:29;4.30;;;3.90;;
10005;SDS011;5042;42.626;23.382;2023-01-25T11:45:30;4.37;;;3.87;;
10005;SDS011;5042;42.626;23.382;2023-01-25T11:51:01;3.40;;;3.10;;
10005;SDS011;5042;42.626;23.382;2023-01-25T11:53:37;4.67;;;3.60;;
10005;SDS011;5042;42.626;23.382;2023-01-25T11:56:18;5.17;;;3.80;;
10005;SDS011;5042;42.626;23.382;2023-01-25T11:59:08;5.07;;;3.57;;
10005;SDS011;5042;42.626;23.382;2023-01-25T12:01:52;4.23;;;3.60;;
10005;SDS011;5042;42.626;23.382;2023-01-25T12:04:34;4.20;;;3.53;;
10005;SDS011;5042;42.626;23.382;2023-01-25T12:07:24;4.00;;;3.50;;
10005;SDS011;5042;42.626;23.382;2023-01-25T12:10:07;4.03;;;2.77;;
10005;SDS011;5042;42.626;23.382;2023-01-25T12:12:47;4.67;;;4.20;;
10005;SDS011;5042;42.626;23.382;2023-01-25T12:15:36;4.33;;;3.60;;
10005;SDS011;5042;42.626;23.382;2023-01-25T12:21:02;4.20;;;3.80;;
10005;SDS011;5042;42.626;23.382;2023-01-25T12:23:38;3.77;;;3.17;;
10005;SDS011;5042;42.626;23.382;2023-01-25T12:26:21;4.83;;;3.77;;
10005;SDS011;5042;42.626;23.382;2023-01-25T12:28:53;4.13;;;3.70;;
10005;SDS011;5042;42.626;23.382;2023-01-25T12:31:29;4.03;;;3.57;;
10005;SDS011;5042;42.626;23.382;2023-01-25T12:34:02;4.57;;;3.80;;
10005;SDS011;5042;42.626;23.382;2023-01-25T12:36:34;2.43;;;2.10;;
10005;SDS011;5042;42.626;23.382;2023-01-25T12:39:08;1.83;;;1.73;;
10005;SDS011;5042;42.626;23.382;2023-01-25T12:41:39;4.27;;;3.80;;
10005;SDS011;5042;42.626;23.382;2023-01-25T12:44:14;4.30;;;3.90;;
10005;SDS011;5042;42.626;23.382;2023-01-25T12:46:47;3.20;;;2.77;;
10005;SDS011;5042;42.626;23.382;2023-01-25T12:49:22;4.30;;;3.63;;
10005;SDS011;5042;42.626;23.382;2023-01-25T12:51:55;5.67;;;4.10;;
10005;SDS011;5042;42.626;23.382;2023-01-25T12:54:28;5.90;;;4.27;;
10005;SDS011;5042;42.626;23.382;2023-01-25T12:57:02;6.40;;;4.40;;
10005;SDS011;5042;42.626;23.382;2023-01-25T12:59:39;5.43;;;4.20;;
10005;SDS011;5042;42.626;23.382;2023-01-25T13:02:19;2.90;;;2.50;;
10005;SDS011;5042;42.626;23.382;2023-01-25T13:04:58;4.83;;;3.83;;
10005;SDS011;5042;42.626;23.382;2023-01-25T13:07:38;4.90;;;4.20;;
10005;SDS011;5042;42.626;23.382;2023-01-25T13:10:21;3.83;;;3.23;;
10005;SDS011;5042;42.626;23.382;2023-01-25T13:12:52;2.23;;;1.90;;
10005;SDS011;5042;42.626;23.382;2023-01-25T13:15:33;6.97;;;4.10;;
10005;SDS011;5042;42.626;23.382;2023-01-25T13:18:01;1.80;;;1.70;;
10005;SDS011;5042;42.626;23.382;2023-01-25T13:20:52;2.23;;;1.77;;
10005;SDS011;5042;42.626;23.382;2023-01-25T13:23:28;7.20;;;4.10;;
10005;SDS011;5042;42.626;23.382;2023-01-25T13:29:02;2.97;;;2.73;;
10005;SDS011;5042;42.626;23.382;2023-01-25T13:31:42;4.33;;;3.57;;
10005;SDS011;5042;42.626;23.382;2023-01-25T13:34:09;0.63;;;0.63;;
10005;SDS011;5042;42.626;23.382;2023-01-25T13:36:41;5.37;;;3.90;;
10005;SDS011;5042;42.626;23.382;2023-01-25T13:42:15;7.27;;;4.43;;
10005;SDS011;5042;42.626;23.382;2023-01-25T13:44:47;4.00;;;3.33;;
10005;SDS011;5042;42.626;23.382;2023-01-25T13:47:16;5.27;;;3.50;;
10005;SDS011;5042;42.626;23.382;2023-01-25T13:49:47;3.80;;;2.73;;
10005;SDS011;5042;42.626;23.382;2023-01-25T13:52:19;4.50;;;4.00;;
10005;SDS011;5042;42.626;23.382;2023-01-25T13:54:48;4.10;;;3.60;;
10005;SDS011;5042;42.626;23.382;2023-01-25T13:57:18;5.33;;;4.33;;
10005;SDS011;5042;42.626;23.382;2023-01-25T13:59:49;5.00;;;4.50;;
10005;SDS011;5042;42.626;23.382;2023-01-25T14:02:24;5.67;;;4.47;;
10005;SDS011;5042;42.626;23.382;2023-01-25T14:04:51;2.13;;;1.90;;
10005;SDS011;5042;42.626;23.382;2023-01-25T14:07:19;2.07;;;1.97;;
10005;SDS011;5042;42.626;23.382;2023-01-25T14:09:47;6.07;;;5.27;;
10005;SDS011;5042;42.626;23.382;2023-01-25T14:12:27;1.73;;;1.63;;
10005;SDS011;5042;42.626;23.382;2023-01-25T14:15:11;5.77;;;4.20;;
10005;SDS011;5042;42.626;23.382;2023-01-25T14:17:42;2.07;;;1.97;;
10005;SDS011;5042;42.626;23.382;2023-01-25T14:20:15;4.47;;;3.77;;
10005;SDS011;5042;42.626;23.382;2023-01-25T14:22:45;1.27;;;1.23;;
10005;SDS011;5042;42.626;23.382;2023-01-25T14:25:14;6.40;;;4.93;;
10005;SDS011;5042;42.626;23.382;2023-01-25T14:27:42;5.77;;;4.43;;
10005;SDS011;5042;42.626;23.382;2023-01-25T14:30:16;6.20;;;4.27;;
10005;SDS011;5042;42.626;23.382;2023-01-25T14:32:48;6.27;;;4.63;;
10005;SDS011;5042;42.626;23.382;2023-01-25T14:35:35;5.53;;;3.97;;
10005;SDS011;5042;42.626;23.382;2023-01-25T14:38:17;4.33;;;3.93;;
10005;SDS011;5042;42.626;23.382;2023-01-25T14:40:46;6.33;;;4.60;;
10005;SDS011;5042;42.626;23.382;2023-01-25T14:43:14;7.33;;;4.80;;
10005;SDS011;5042;42.626;23.382;2023-01-25T14:45:43;6.07;;;3.77;;
10005;SDS011;5042;42.626;23.382;2023-01-25T14:51:02;2.10;;;2.00;;
10005;SDS011;5042;42.626;23.382;2023-01-25T14:53:31;4.37;;;3.43;;
10005;SDS011;5042;42.626;23.382;2023-01-25T14:55:58;5.10;;;3.80;;
10005;SDS011;5042;42.626;23.382;2023-01-25T14:58:26;2.03;;;1.47;;
10005;SDS011;5042;42.626;23.382;2023-01-25T15:00:58;5.37;;;3.93;;
10005;SDS011;5042;42.626;23.382;2023-01-25T15:03:27;2.30;;;2.20;;
10005;SDS011;5042;42.626;23.382;2023-01-25T15:05:56;4.37;;;3.70;;
10005;SDS011;5042;42.626;23.382;2023-01-25T15:08:26;1.90;;;1.80;;
10005;SDS011;5042;42.626;23.382;2023-01-25T15:10:55;3.77;;;3.43;;
10005;SDS011;5042;42.626;23.382;2023-01-25T15:13:43;4.10;;;3.73;;
10005;SDS011;5042;42.626;23.382;2023-01-25T15:16:11;5.93;;;3.93;;
10005;SDS011;5042;42.626;23.382;2023-01-25T15:18:44;6.83;;;4.73;;
10005;SDS011;5042;42.626;23.382;2023-01-25T15:21:12;8.40;;;5.30;;
10005;SDS011;5042;42.626;23.382;2023-01-25T15:23:40;6.87;;;5.03;;
10005;SDS011;5042;42.626;23.382;2023-01-25T15:26:13;8.27;;;4.93;;
10005;SDS011;5042;42.626;23.382;2023-01-25T15:28:43;6.40;;;4.87;;
10005;SDS011;5042;42.626;23.382;2023-01-25T15:31:12;7.97;;;5.23;;
10005;SDS011;5042;42.626;23.382;2023-01-25T15:33:42;8.73;;;5.43;;